createdAt,value
2018-09-17T00:01:21.475Z,19.70
2018-09-17T00:03:49.931Z,20.20
2018-09-17T00:06:18.400Z,20.13
2018-09-17T00:08:46.796Z,19.90
2018-09-17T00:11:15.293Z,20.33
2018-09-17T00:13:43.643Z,20.97
2018-09-17T00:16:12.008Z,19.03
2018-09-17T00:18:40.390Z,21.00
2018-09-17T00:21:08.842Z,20.20
2018-09-17T00:23:37.188Z,20.37
2018-09-17T00:26:05.624Z,20.17
2018-09-17T00:28:34.002Z,20.87
2018-09-17T00:31:02.372Z,21.77
2018-09-17T00:33:30.814Z,20.60
2018-09-17T00:35:59.217Z,20.50
2018-09-17T00:38:27.647Z,20.83
2018-09-17T00:40:56.059Z,20.23
2018-09-17T00:43:24.446Z,19.93
2018-09-17T00:45:52.906Z,21.40
2018-09-17T00:48:21.395Z,18.50
2018-09-17T00:50:49.845Z,19.53
2018-09-17T00:53:18.252Z,19.10
2018-09-17T00:55:46.628Z,19.33
2018-09-17T00:58:15.105Z,19.90
2018-09-17T01:00:43.577Z,18.20
2018-09-17T01:03:12.070Z,19.40
2018-09-17T01:05:40.460Z,19.27
2018-09-17T01:08:08.909Z,19.13
2018-09-17T01:10:37.357Z,20.20
2018-09-17T01:13:05.737Z,19.57
2018-09-17T01:15:34.140Z,19.10
2018-09-17T01:18:02.558Z,19.60
2018-09-17T01:20:31.050Z,19.80
2018-09-17T01:22:59.475Z,21.13
2018-09-17T01:25:27.841Z,22.97
2018-09-17T01:27:56.277Z,19.73
2018-09-17T01:30:24.641Z,19.93
2018-09-17T01:32:53.009Z,19.37
2018-09-17T01:35:21.457Z,19.93
2018-09-17T01:37:49.977Z,22.07
2018-09-17T01:40:18.381Z,21.57
2018-09-17T01:42:46.716Z,20.13
2018-09-17T01:45:15.115Z,22.00
2018-09-17T01:47:43.480Z,21.97
2018-09-17T01:50:11.835Z,22.63
2018-09-17T01:52:40.222Z,21.60
2018-09-17T01:55:08.590Z,20.47
2018-09-17T01:57:37.005Z,19.40
2018-09-17T02:00:05.342Z,19.80
2018-09-17T02:02:33.683Z,19.47
2018-09-17T02:05:02.551Z,20.13
2018-09-17T02:07:30.951Z,20.40
2018-09-17T02:09:59.390Z,21.23
2018-09-17T02:12:27.707Z,20.37
2018-09-17T02:14:56.166Z,20.00
2018-09-17T02:17:24.639Z,19.77
2018-09-17T02:19:53.065Z,21.67
2018-09-17T02:22:21.479Z,21.33
2018-09-17T02:24:49.947Z,20.77
2018-09-17T02:27:18.334Z,20.70
2018-09-17T02:29:46.714Z,20.80
2018-09-17T02:32:15.268Z,21.20
2018-09-17T02:34:43.599Z,23.40
2018-09-17T02:37:11.874Z,21.63
2018-09-17T02:39:40.231Z,20.10
2018-09-17T02:42:08.887Z,21.57
2018-09-17T02:44:37.687Z,22.10
2018-09-17T02:47:06.123Z,21.67
2018-09-17T02:49:34.489Z,21.53
2018-09-17T02:52:03.066Z,22.47
2018-09-17T02:54:32.087Z,21.10
2018-09-17T02:57:00.475Z,21.17
2018-09-17T02:59:29.144Z,19.83
2018-09-17T03:01:57.497Z,19.60
2018-09-17T03:04:25.900Z,18.97
2018-09-17T03:06:54.240Z,19.90
2018-09-17T03:09:22.617Z,19.30
2018-09-17T03:11:51.135Z,19.00
2018-09-17T03:14:27.526Z,20.40
2018-09-17T03:17:07.193Z,20.23
2018-09-17T03:19:35.557Z,20.20
2018-09-17T03:22:03.910Z,20.57
2018-09-17T03:24:32.480Z,21.87
2018-09-17T03:27:00.840Z,20.77
2018-09-17T03:29:29.254Z,20.93
2018-09-17T03:31:57.646Z,21.20
2018-09-17T03:34:26.021Z,20.17
2018-09-17T03:36:54.443Z,22.37
2018-09-17T03:39:22.838Z,19.50
2018-09-17T03:41:51.314Z,20.77
2018-09-17T03:44:19.667Z,21.30
2018-09-17T03:46:48.196Z,19.70
2018-09-17T03:49:16.549Z,18.87
2018-09-17T03:51:45.016Z,18.80
2018-09-17T03:54:13.376Z,18.70
2018-09-17T03:56:41.826Z,19.07
2018-09-17T03:59:10.148Z,18.60
2018-09-17T04:01:38.498Z,18.43
2018-09-17T04:04:06.953Z,19.80
2018-09-17T04:06:35.365Z,17.23
2018-09-17T04:09:05.391Z,17.83
2018-09-17T04:11:33.705Z,19.07
2018-09-17T04:14:02.081Z,18.23
2018-09-17T04:16:30.532Z,18.83
2018-09-17T04:18:59.431Z,18.80
2018-09-17T04:21:27.932Z,17.97
2018-09-17T04:23:57.097Z,18.57
2018-09-17T04:26:25.506Z,17.63
2018-09-17T04:28:53.969Z,17.47
2018-09-17T04:31:22.351Z,15.77
2018-09-17T04:33:50.688Z,16.70
2018-09-17T04:36:19.069Z,16.50
2018-09-17T04:38:47.437Z,16.00
2018-09-17T04:41:15.871Z,15.47
2018-09-17T04:43:44.265Z,18.13
2018-09-17T04:46:12.680Z,17.83
2018-09-17T04:48:41.066Z,18.37
2018-09-17T04:51:09.526Z,17.10
2018-09-17T04:53:38.027Z,18.73
2018-09-17T04:56:06.402Z,19.07
2018-09-17T04:58:34.754Z,18.60
2018-09-17T05:01:03.260Z,17.33
2018-09-17T05:03:31.742Z,17.57
2018-09-17T05:06:00.279Z,18.33
2018-09-17T05:08:28.713Z,17.67
2018-09-17T05:10:57.079Z,16.23
2018-09-17T05:13:25.675Z,16.53
2018-09-17T05:15:53.956Z,15.60
2018-09-17T05:18:22.377Z,16.67
2018-09-17T05:20:50.773Z,16.07
2018-09-17T05:23:19.169Z,15.83
2018-09-17T05:25:47.539Z,16.33
2018-09-17T05:28:15.952Z,16.10
2018-09-17T05:30:44.290Z,17.20
2018-09-17T05:33:12.684Z,16.87
2018-09-17T05:35:41.158Z,16.70
2018-09-17T05:38:09.541Z,16.93
2018-09-17T05:40:37.874Z,15.20
2018-09-17T05:43:06.277Z,15.40
2018-09-17T05:45:34.737Z,15.33
2018-09-17T05:48:03.097Z,15.40
2018-09-17T05:50:31.564Z,17.60
2018-09-17T05:52:59.988Z,14.43
2018-09-17T05:55:28.414Z,14.70
2018-09-17T05:57:56.737Z,15.27
2018-09-17T06:00:25.229Z,15.20
2018-09-17T06:02:53.635Z,14.80
2018-09-17T06:05:22.141Z,15.30
2018-09-17T06:07:50.544Z,14.10
2018-09-17T06:10:18.859Z,15.40
2018-09-17T06:12:48.370Z,15.27
2018-09-17T06:15:17.134Z,15.27
2018-09-17T06:17:45.704Z,14.30
2018-09-17T06:20:14.106Z,12.73
2018-09-17T06:22:42.468Z,13.27
2018-09-17T06:25:10.899Z,13.30
2018-09-17T06:27:39.433Z,12.40
2018-09-17T06:30:07.886Z,13.03
2018-09-17T06:32:36.433Z,12.90
2018-09-17T06:35:05.298Z,12.93
2018-09-17T06:37:33.739Z,11.80
2018-09-17T06:40:02.224Z,10.70
2018-09-17T06:42:31.618Z,9.33
2018-09-17T06:45:00.142Z,11.00
2018-09-17T06:47:28.437Z,10.60
2018-09-17T06:49:56.886Z,11.10
2018-09-17T06:52:25.252Z,9.77
2018-09-17T06:54:53.615Z,9.60
2018-09-17T06:57:21.975Z,9.40
2018-09-17T06:59:50.378Z,9.20
2018-09-17T07:02:18.846Z,9.83
2018-09-17T07:04:47.305Z,12.07
2018-09-17T07:07:15.713Z,11.23
2018-09-17T07:09:44.091Z,11.87
2018-09-17T07:12:12.412Z,13.20
2018-09-17T07:14:40.826Z,13.83
2018-09-17T07:17:09.199Z,13.23
2018-09-17T07:19:37.655Z,12.27
2018-09-17T07:22:06.131Z,12.70
2018-09-17T07:24:34.447Z,11.47
2018-09-17T07:27:02.829Z,11.17
2018-09-17T07:29:31.192Z,11.83
2018-09-17T07:31:59.701Z,11.00
2018-09-17T07:34:28.142Z,10.80
2018-09-17T07:36:56.600Z,10.80
2018-09-17T07:39:25.026Z,11.00
2018-09-17T07:41:53.616Z,10.63
2018-09-17T07:44:21.996Z,11.17
2018-09-17T07:46:50.378Z,10.87
2018-09-17T07:49:19.163Z,11.20
2018-09-17T07:51:47.598Z,11.00
2018-09-17T07:54:15.973Z,11.37
2018-09-17T07:56:44.359Z,11.30
2018-09-17T07:59:12.883Z,12.00
2018-09-17T08:01:41.410Z,11.80
2018-09-17T08:04:09.820Z,11.07
2018-09-17T08:06:38.233Z,11.33
2018-09-17T08:09:10.105Z,10.90
2018-09-17T08:11:39.019Z,10.27
2018-09-17T08:14:07.491Z,9.50
2018-09-17T08:16:35.939Z,10.20
2018-09-17T08:19:04.401Z,9.23
2018-09-17T08:21:32.930Z,9.60
2018-09-17T08:24:01.361Z,10.67
2018-09-17T08:26:29.796Z,8.90
2018-09-17T08:28:58.181Z,9.63
2018-09-17T08:31:26.665Z,9.60
2018-09-17T08:33:55.087Z,8.77
2018-09-17T08:36:23.539Z,8.70
2018-09-17T08:38:51.919Z,8.13
2018-09-17T08:41:20.314Z,8.50
2018-09-17T08:43:48.952Z,8.60
2018-09-17T08:46:17.510Z,8.63
2018-09-17T08:48:45.951Z,7.73
2018-09-17T08:51:14.368Z,7.37
2018-09-17T08:53:42.715Z,7.90
2018-09-17T08:56:16.539Z,6.70
2018-09-17T08:58:50.239Z,7.60
2018-09-17T09:01:24.062Z,7.37
2018-09-17T09:03:57.827Z,7.47
2018-09-17T09:06:29.131Z,6.50
2018-09-17T09:08:57.599Z,7.37
2018-09-17T09:11:33.244Z,6.90
2018-09-17T09:14:10.335Z,6.70
2018-09-17T09:16:38.797Z,7.90
2018-09-17T09:19:07.402Z,7.27
2018-09-17T09:21:35.891Z,7.53
2018-09-17T09:24:04.254Z,8.17
2018-09-17T09:26:32.726Z,8.40
2018-09-17T09:29:01.170Z,8.10
2018-09-17T09:31:29.436Z,7.47
2018-09-17T09:33:57.825Z,7.70
2018-09-17T09:36:26.160Z,7.17
2018-09-17T09:38:54.495Z,7.13
2018-09-17T09:41:22.793Z,7.40
2018-09-17T09:43:51.076Z,6.80
2018-09-17T09:46:19.499Z,6.70
2018-09-17T09:48:47.881Z,7.30
2018-09-17T09:51:16.284Z,6.80
2018-09-17T09:53:44.688Z,6.80
2018-09-17T09:56:13.151Z,6.97
2018-09-17T09:58:41.611Z,6.70
2018-09-17T10:01:15.313Z,6.10
2018-09-17T10:03:44.421Z,6.33
2018-09-17T10:06:14.640Z,6.57
2018-09-17T10:08:48.462Z,6.30
2018-09-17T10:11:22.265Z,6.33
2018-09-17T10:13:56.145Z,6.17
2018-09-17T10:16:24.580Z,5.77
2018-09-17T10:18:58.230Z,6.33
2018-09-17T10:21:26.565Z,6.10
2018-09-17T10:23:54.980Z,6.30
2018-09-17T10:26:23.322Z,6.33
2018-09-17T10:28:51.676Z,6.07
2018-09-17T10:31:20.283Z,6.60
2018-09-17T10:33:48.603Z,5.73
2018-09-17T10:36:17.064Z,6.20
2018-09-17T10:38:45.444Z,6.30
2018-09-17T10:41:13.972Z,5.70
2018-09-17T10:43:42.514Z,6.20
2018-09-17T10:46:11.095Z,6.60
2018-09-17T10:48:39.482Z,6.20
2018-09-17T10:51:07.848Z,5.70
2018-09-17T10:53:36.332Z,5.70
2018-09-17T10:56:04.702Z,5.53
2018-09-17T10:58:33.136Z,5.47
2018-09-17T11:01:03.544Z,5.90
2018-09-17T11:03:31.897Z,5.57
2018-09-17T11:06:00.351Z,5.93
2018-09-17T11:08:28.820Z,5.53
2018-09-17T11:10:57.212Z,6.00
2018-09-17T11:13:25.597Z,5.77
2018-09-17T11:15:54.009Z,5.70
2018-09-17T11:18:22.419Z,5.50
2018-09-17T11:20:50.887Z,6.10
2018-09-17T11:23:19.190Z,5.37
2018-09-17T11:25:47.569Z,5.53
2018-09-17T11:28:15.933Z,5.83
2018-09-17T11:30:44.318Z,5.60
2018-09-17T11:33:13.031Z,5.90
2018-09-17T11:35:41.339Z,5.27
2018-09-17T11:38:10.313Z,6.20
2018-09-17T11:40:38.691Z,5.80
2018-09-17T11:43:07.223Z,5.37
2018-09-17T11:45:35.590Z,5.57
2018-09-17T11:48:03.972Z,5.67
2018-09-17T11:50:32.375Z,5.93
2018-09-17T11:53:00.796Z,6.10
2018-09-17T11:55:29.224Z,5.90
2018-09-17T11:57:57.794Z,5.80
2018-09-17T12:00:31.566Z,6.90
2018-09-17T12:03:05.285Z,6.80
2018-09-17T12:06:06.484Z,5.50
2018-09-17T12:08:34.912Z,4.97
2018-09-17T12:11:03.383Z,5.70
2018-09-17T12:13:31.733Z,5.93
2018-09-17T12:16:00.141Z,6.00
2018-09-17T12:18:28.498Z,6.53
2018-09-17T12:20:56.815Z,5.80
2018-09-17T12:23:25.168Z,5.40
2018-09-17T12:25:53.484Z,6.17
2018-09-17T12:28:21.903Z,5.57
2018-09-17T12:30:50.248Z,5.87
2018-09-17T12:33:18.614Z,5.40
2018-09-17T12:35:46.978Z,6.17
2018-09-17T12:38:15.368Z,8.40
2018-09-17T12:40:43.758Z,6.30
2018-09-17T12:43:12.174Z,5.87
2018-09-17T12:45:40.595Z,5.90
2018-09-17T12:48:08.981Z,5.83
2018-09-17T12:50:37.363Z,6.50
2018-09-17T12:53:05.806Z,5.80
2018-09-17T12:55:34.146Z,5.93
2018-09-17T12:58:02.494Z,5.70
2018-09-17T13:00:30.864Z,6.07
2018-09-17T13:02:59.206Z,6.60
2018-09-17T13:05:27.689Z,6.37
2018-09-17T13:07:56.040Z,7.20
2018-09-17T13:10:24.375Z,7.20
2018-09-17T13:12:52.793Z,6.57
2018-09-17T13:15:21.132Z,7.27
2018-09-17T13:17:49.504Z,6.57
2018-09-17T13:20:17.880Z,7.20
2018-09-17T13:22:46.258Z,7.00
2018-09-17T13:25:14.578Z,7.43
2018-09-17T13:27:42.967Z,7.70
2018-09-17T13:30:11.388Z,7.20
2018-09-17T13:32:39.738Z,5.97
2018-09-17T13:35:08.207Z,6.77
2018-09-17T13:37:36.619Z,7.37
2018-09-17T13:40:04.973Z,8.20
2018-09-17T13:42:33.442Z,6.90
2018-09-17T13:45:01.817Z,7.17
2018-09-17T13:47:30.212Z,7.00
2018-09-17T13:49:58.707Z,7.10
2018-09-17T13:52:27.114Z,7.47
2018-09-17T13:54:55.501Z,7.90
2018-09-17T13:57:23.871Z,7.23
2018-09-17T13:59:52.235Z,8.40
2018-09-17T14:02:20.576Z,7.83
2018-09-17T14:04:48.897Z,7.70
2018-09-17T14:07:17.279Z,8.50
2018-09-17T14:09:45.607Z,8.90
2018-09-17T14:12:14.003Z,9.60
2018-09-17T14:14:42.349Z,8.50
2018-09-17T14:17:10.817Z,7.97
2018-09-17T14:19:39.237Z,7.67
2018-09-17T14:22:07.538Z,8.00
2018-09-17T14:24:35.974Z,8.10
2018-09-17T14:27:04.423Z,7.60
2018-09-17T14:29:32.814Z,8.10
2018-09-17T14:32:06.519Z,8.20
2018-09-17T14:34:34.876Z,7.63
2018-09-17T14:37:03.234Z,7.07
2018-09-17T14:39:31.668Z,7.27
2018-09-17T14:42:00.339Z,8.37
2018-09-17T14:44:28.719Z,7.77
2018-09-17T14:46:57.086Z,7.90
2018-09-17T14:49:25.452Z,7.93
2018-09-17T14:51:53.901Z,8.03
2018-09-17T14:54:22.264Z,7.80
2018-09-17T14:56:50.700Z,7.90
2018-09-17T14:59:19.086Z,7.67
2018-09-17T15:01:47.575Z,8.10
2018-09-17T15:04:15.824Z,6.93
2018-09-17T15:06:44.185Z,7.30
2018-09-17T15:09:12.566Z,7.20
2018-09-17T15:11:40.972Z,7.40
2018-09-17T15:14:10.044Z,7.70
2018-09-17T15:16:38.390Z,7.30
2018-09-17T15:19:07.082Z,7.67
2018-09-17T15:21:35.470Z,7.30
2018-09-17T15:24:04.008Z,6.80
2018-09-17T15:26:32.593Z,7.20
2018-09-17T15:29:00.782Z,7.13
2018-09-17T15:31:29.217Z,7.20
2018-09-17T15:33:57.693Z,7.37
2018-09-17T15:36:26.340Z,7.90
2018-09-17T15:38:54.762Z,7.43
2018-09-17T15:41:23.769Z,6.87
2018-09-17T15:43:52.035Z,7.23
2018-09-17T15:46:20.440Z,7.70
2018-09-17T15:48:48.770Z,7.43
2018-09-17T15:51:17.184Z,7.60
2018-09-17T15:53:45.631Z,7.47
2018-09-17T15:56:14.173Z,6.77
2018-09-17T15:58:42.566Z,6.80
2018-09-17T16:01:10.877Z,7.33
2018-09-17T16:03:39.242Z,6.90
2018-09-17T16:06:07.660Z,7.10
2018-09-17T16:08:36.064Z,6.57
2018-09-17T16:11:04.332Z,7.27
2018-09-17T16:13:32.702Z,6.33
2018-09-17T16:16:01.053Z,8.10
2018-09-17T16:18:30.212Z,7.43
2018-09-17T16:20:58.581Z,6.33
2018-09-17T16:23:27.020Z,6.17
2018-09-17T16:25:55.428Z,7.07
2018-09-17T16:28:23.812Z,6.60
2018-09-17T16:30:52.111Z,6.33
2018-09-17T16:33:20.550Z,7.07
2018-09-17T16:35:48.874Z,6.30
2018-09-17T16:38:17.222Z,6.40
2018-09-17T16:40:45.790Z,7.00
2018-09-17T16:43:14.138Z,7.00
2018-09-17T16:45:42.465Z,6.70
2018-09-17T16:48:10.857Z,6.73
2018-09-17T16:50:39.289Z,6.50
2018-09-17T16:53:07.662Z,6.50
2018-09-17T16:55:35.961Z,7.17
2018-09-17T16:58:04.447Z,7.30
2018-09-17T17:00:32.852Z,7.00
2018-09-17T17:03:01.156Z,6.73
2018-09-17T17:05:29.565Z,7.50
2018-09-17T17:07:57.959Z,7.87
2018-09-17T17:10:26.327Z,7.07
2018-09-17T17:12:54.830Z,8.47
2018-09-17T17:15:23.156Z,6.80
2018-09-17T17:17:51.547Z,6.90
2018-09-17T17:20:19.985Z,6.47
2018-09-17T17:22:48.408Z,6.60
2018-09-17T17:25:16.871Z,7.30
2018-09-17T17:27:45.299Z,7.53
2018-09-17T17:30:13.686Z,7.30
2018-09-17T17:32:42.129Z,6.87
2018-09-17T17:35:10.955Z,7.37
2018-09-17T17:37:39.279Z,7.67
2018-09-17T17:40:07.812Z,7.67
2018-09-17T17:42:36.143Z,7.57
2018-09-17T17:45:05.269Z,7.27
2018-09-17T17:47:33.673Z,7.97
2018-09-17T17:50:02.019Z,9.20
2018-09-17T17:52:30.451Z,9.23
2018-09-17T17:54:58.768Z,8.87
2018-09-17T17:57:27.123Z,9.00
2018-09-17T17:59:55.599Z,8.10
2018-09-17T18:02:24.055Z,7.40
2018-09-17T18:04:52.429Z,8.50
2018-09-17T18:07:20.789Z,8.27
2018-09-17T18:09:49.172Z,8.37
2018-09-17T18:12:17.480Z,9.40
2018-09-17T18:14:45.875Z,9.53
2018-09-17T18:17:14.214Z,8.53
2018-09-17T18:19:42.673Z,10.50
2018-09-17T18:22:11.248Z,9.80
2018-09-17T18:24:39.627Z,8.87
2018-09-17T18:27:08.073Z,8.97
2018-09-17T18:29:36.403Z,9.57
2018-09-17T18:32:04.726Z,8.60
2018-09-17T18:34:33.050Z,8.70
2018-09-17T18:37:01.492Z,9.10
2018-09-17T18:39:29.808Z,9.80
2018-09-17T18:41:58.103Z,9.90
2018-09-17T18:44:26.620Z,9.93
2018-09-17T18:46:55.027Z,10.93
2018-09-17T18:49:23.392Z,10.50
2018-09-17T18:51:51.766Z,9.80
2018-09-17T18:54:20.248Z,11.63
2018-09-17T18:56:48.571Z,10.33
2018-09-17T18:59:16.957Z,10.70
2018-09-17T19:01:45.408Z,10.87
2018-09-17T19:04:13.895Z,11.23
2018-09-17T19:06:42.472Z,11.63
2018-09-17T19:09:10.981Z,12.40
2018-09-17T19:11:39.473Z,10.70
2018-09-17T19:14:13.260Z,12.50
2018-09-17T19:16:47.055Z,11.87
2018-09-17T19:19:15.515Z,11.30
2018-09-17T19:21:49.637Z,11.20
2018-09-17T19:24:17.958Z,12.50
2018-09-17T19:26:46.385Z,11.37
2018-09-17T19:29:22.348Z,11.77
2018-09-17T19:31:50.785Z,11.47
2018-09-17T19:34:19.193Z,11.70
2018-09-17T19:36:47.611Z,12.33
2018-09-17T19:39:21.342Z,11.73
2018-09-17T19:41:50.063Z,11.80
2018-09-17T19:44:18.390Z,11.77
2018-09-17T19:46:46.760Z,11.90
2018-09-17T19:49:15.141Z,12.07
2018-09-17T19:51:48.911Z,11.80
2018-09-17T19:54:17.342Z,12.40
2018-09-17T19:56:45.749Z,12.20
2018-09-17T19:59:19.450Z,12.73
2018-09-17T20:01:47.946Z,13.10
2018-09-17T20:04:21.725Z,11.97
2018-09-17T20:06:50.116Z,12.00
2018-09-17T20:09:18.487Z,12.03
2018-09-17T20:11:46.857Z,13.03
2018-09-17T20:14:15.170Z,11.93
2018-09-17T20:16:43.531Z,12.60
2018-09-17T20:19:12.037Z,12.37
2018-09-17T20:21:40.428Z,12.87
2018-09-17T20:24:08.976Z,12.70
2018-09-17T20:26:37.593Z,12.13
2018-09-17T20:29:06.191Z,12.50
2018-09-17T20:31:34.690Z,11.27
2018-09-17T20:34:03.443Z,12.33
2018-09-17T20:36:31.913Z,11.53
2018-09-17T20:39:00.518Z,13.50
2018-09-17T20:41:28.998Z,12.77
2018-09-17T20:43:57.495Z,13.27
2018-09-17T20:46:25.873Z,12.60
2018-09-17T20:48:54.446Z,13.20
2018-09-17T20:51:22.784Z,13.60
2018-09-17T20:53:51.455Z,12.47
2018-09-17T20:56:19.914Z,13.60
2018-09-17T20:58:48.246Z,12.57
2018-09-17T21:01:16.735Z,13.73
2018-09-17T21:03:45.637Z,14.20
2018-09-17T21:06:14.749Z,13.17
2018-09-17T21:08:43.981Z,13.07
2018-09-17T21:11:12.429Z,13.03
2018-09-17T21:13:40.777Z,12.80
2018-09-17T21:16:09.226Z,12.97
2018-09-17T21:18:37.701Z,12.80
2018-09-17T21:21:06.193Z,12.30
2018-09-17T21:23:34.596Z,12.40
2018-09-17T21:26:03.049Z,12.10
2018-09-17T21:28:31.437Z,14.07
2018-09-17T21:31:03.228Z,12.87
2018-09-17T21:33:31.552Z,12.87
2018-09-17T21:35:59.971Z,12.77
2018-09-17T21:38:28.454Z,13.17
2018-09-17T21:40:56.930Z,11.90
2018-09-17T21:43:25.232Z,12.27
2018-09-17T21:45:53.676Z,12.30
2018-09-17T21:48:22.102Z,12.43
2018-09-17T21:50:50.455Z,12.87
2018-09-17T21:53:18.921Z,11.80
2018-09-17T21:55:47.357Z,13.10
2018-09-17T21:58:15.761Z,12.27
2018-09-17T22:00:49.479Z,13.00
2018-09-17T22:03:17.903Z,13.40
2018-09-17T22:05:46.437Z,12.60
2018-09-17T22:08:14.900Z,13.73
2018-09-17T22:10:43.327Z,14.10
2018-09-17T22:13:11.711Z,13.57
2018-09-17T22:15:40.054Z,14.13
2018-09-17T22:18:08.504Z,13.03
2018-09-17T22:20:36.865Z,14.07
2018-09-17T22:23:05.255Z,14.00
2018-09-17T22:25:33.786Z,13.37
2018-09-17T22:28:02.516Z,13.50
2018-09-17T22:30:30.822Z,14.30
2018-09-17T22:32:59.237Z,13.63
2018-09-17T22:35:27.859Z,13.77
2018-09-17T22:37:56.381Z,14.03
2018-09-17T22:40:24.915Z,14.37
2018-09-17T22:42:53.250Z,12.50
2018-09-17T22:45:21.603Z,12.97
2018-09-17T22:47:50.029Z,13.17
2018-09-17T22:50:18.498Z,13.47
2018-09-17T22:52:46.923Z,14.40
2018-09-17T22:55:15.326Z,13.83
2018-09-17T22:57:43.986Z,14.20
2018-09-17T23:00:12.559Z,15.50
2018-09-17T23:02:40.999Z,13.70
2018-09-17T23:05:09.516Z,13.80
2018-09-17T23:07:37.890Z,14.50
2018-09-17T23:10:07.583Z,13.53
2018-09-17T23:12:36.065Z,14.20
2018-09-17T23:15:04.858Z,14.53
2018-09-17T23:17:33.360Z,14.27
2018-09-17T23:20:01.731Z,13.90
2018-09-17T23:22:30.170Z,14.67
2018-09-17T23:24:58.541Z,14.57
2018-09-17T23:27:26.877Z,14.87
2018-09-17T23:29:55.349Z,14.10
2018-09-17T23:32:23.729Z,14.80
2018-09-17T23:34:52.126Z,13.77
2018-09-17T23:37:20.556Z,13.43
2018-09-17T23:39:48.993Z,13.77
2018-09-17T23:42:17.499Z,14.00
2018-09-17T23:44:46.133Z,13.00
2018-09-17T23:47:14.545Z,13.03
2018-09-17T23:49:42.916Z,14.80
2018-09-17T23:52:11.237Z,13.70
2018-09-17T23:54:39.664Z,14.00
2018-09-17T23:57:08.030Z,13.60
2018-09-17T23:59:36.475Z,13.37
